Time;durP1;ratioP1;P1;durP2;ratioP2;P2;SDS_P1;SDS_P2;PMS_P1;PMS_P2;Temp;Humidity;BMP_temperature;BMP_pressure;BME280_temperature;BME280_humidity;BME280_pressure;Samples;Min_cycle;Max_cycle;Signal;HPM_P1;HPM_P2
2023/09/19 00:00:40;;;;;;;0.40;0.40;;;;;;;;;;5064050;28;20025;-82
2023/09/19 00:03:06;;;;;;;0.70;0.47;;;;;;;;;;5059440;28;20124;-80
2023/09/19 00:05:36;;;;;;;0.50;0.50;;;;;;;;;;5059395;28;20025;-81
2023/09/19 00:08:05;;;;;;;0.47;0.40;;;;;;;;;;5058514;28;20033;-81
2023/09/19 00:10:34;;;;;;;0.40;0.40;;;;;;;;;;5061608;28;20021;-82
2023/09/19 00:13:04;;;;;;;0.30;0.30;;;;;;;;;;5068165;28;20022;-81
2023/09/19 00:15:33;;;;;;;0.50;0.50;;;;;;;;;;5068554;28;20040;-83
2023/09/19 00:17:59;;;;;;;0.50;0.50;;;;;;;;;;5063782;28;20028;-81
2023/09/19 00:20:25;;;;;;;0.55;0.50;;;;;;;;;;5063947;28;20036;-83
2023/09/19 00:22:53;;;;;;;0.50;0.50;;;;;;;;;;5064087;28;20036;-82
2023/09/19 00:25:20;;;;;;;0.43;0.43;;;;;;;;;;5080073;28;20041;-82
2023/09/19 00:27:49;;;;;;;0.38;0.38;;;;;;;;;;5080980;28;20036;-83
2023/09/19 00:30:19;;;;;;;1.45;0.30;;;;;;;;;;5082538;28;20020;-82
2023/09/19 00:32:47;;;;;;;0.98;0.70;;;;;;;;;;5083861;28;20449;-82
2023/09/19 00:35:16;;;;;;;0.77;0.50;;;;;;;;;;5080938;28;20375;-82
2023/09/19 00:37:43;;;;;;;0.30;0.30;;;;;;;;;;5083535;28;20020;-82
2023/09/19 00:40:15;;;;;;;0.40;0.40;;;;;;;;;;5083089;28;20025;-83
2023/09/19 00:42:41;;;;;;;;;;;;;;;;;;5084952;28;20082;-83
2023/09/19 00:45:11;;;;;;;0.30;0.30;;;;;;;;;;5075257;28;20022;-83
2023/09/19 00:47:38;;;;;;;0.25;0.25;;;;;;;;;;5063650;28;20103;-83
2023/09/19 00:50:07;;;;;;;0.60;0.60;;;;;;;;;;5063149;28;20017;-82
2023/09/19 00:52:36;;;;;;;0.40;0.40;;;;;;;;;;5062796;28;20498;-83
2023/09/19 00:55:02;;;;;;;0.60;0.60;;;;;;;;;;5062735;28;20093;-83
2023/09/19 00:57:32;;;;;;;0.60;0.60;;;;;;;;;;5071847;28;20446;-83
2023/09/19 00:59:59;;;;;;;0.38;0.38;;;;;;;;;;5063895;28;20488;-83
2023/09/19 01:02:28;;;;;;;0.47;0.47;;;;;;;;;;5062353;28;20048;-81
2023/09/19 01:04:54;;;;;;;0.63;0.63;;;;;;;;;;5066481;28;20029;-83
2023/09/19 01:07:22;;;;;;;0.40;0.40;;;;;;;;;;5074231;28;20029;-82
2023/09/19 01:09:49;;;;;;;0.68;0.68;;;;;;;;;;5063356;28;20104;-82
2023/09/19 01:12:18;;;;;;;0.57;0.57;;;;;;;;;;5074884;28;20025;-81
2023/09/19 01:14:48;;;;;;;0.60;0.60;;;;;;;;;;5084834;28;20012;-81
2023/09/19 01:17:23;;;;;;;0.60;0.60;;;;;;;;;;5096655;28;20035;-81
2023/09/19 01:20:07;;;;;;;0.63;0.60;;;;;;;;;;5096874;28;20024;-80
2023/09/19 01:22:52;;;;;;;0.50;0.50;;;;;;;;;;5090941;28;20009;-80
2023/09/19 01:25:25;;;;;;;0.50;0.50;;;;;;;;;;5088256;28;20024;-78
2023/09/19 01:27:59;;;;;;;0.50;0.50;;;;;;;;;;5091420;28;20021;-82
2023/09/19 01:30:29;;;;;;;0.52;0.52;;;;;;;;;;5095080;28;20108;-80
2023/09/19 01:32:55;;;;;;;0.50;0.50;;;;;;;;;;5096960;28;20017;-79
2023/09/19 01:35:21;;;;;;;0.50;0.50;;;;;;;;;;5088046;28;20029;-80
2023/09/19 01:37:47;;;;;;;0.40;0.40;;;;;;;;;;5078122;28;20124;-80
2023/09/19 01:40:17;;;;;;;0.45;0.45;;;;;;;;;;5074816;28;20009;-81
2023/09/19 01:42:46;;;;;;;0.47;0.47;;;;;;;;;;5073887;28;20033;-83
2023/09/19 01:45:27;;;;;;;0.30;0.30;;;;;;;;;;5079690;28;20049;-82
2023/09/19 01:47:57;;;;;;;0.40;0.40;;;;;;;;;;5096675;28;20092;-81
2023/09/19 01:50:23;;;;;;;0.50;0.50;;;;;;;;;;5087839;28;20092;-77
2023/09/19 01:53:00;;;;;;;0.45;0.32;;;;;;;;;;5079304;28;20013;-77
2023/09/19 01:55:28;;;;;;;0.50;0.50;;;;;;;;;;5076602;28;20033;-82
2023/09/19 01:58:07;;;;;;;0.47;0.43;;;;;;;;;;5082250;28;20024;-82
2023/09/19 02:00:35;;;;;;;0.90;0.50;;;;;;;;;;5077679;28;20012;-83
2023/09/19 02:03:01;;;;;;;1.17;0.77;;;;;;;;;;5080293;28;20028;-80
2023/09/19 02:05:27;;;;;;;0.60;0.60;;;;;;;;;;5093542;28;20376;-80
2023/09/19 02:07:55;;;;;;;0.68;0.68;;;;;;;;;;5094580;28;20028;-80
2023/09/19 02:10:21;;;;;;;0.60;0.60;;;;;;;;;;5094094;28;20016;-80
2023/09/19 02:12:48;;;;;;;0.60;0.60;;;;;;;;;;5087738;28;20104;-82
2023/09/19 02:15:15;;;;;;;0.50;0.50;;;;;;;;;;5080485;28;20044;-81
2023/09/19 02:17:42;;;;;;;0.60;0.60;;;;;;;;;;5081447;28;20028;-84
2023/09/19 02:20:10;;;;;;;0.50;0.50;;;;;;;;;;5083401;28;20017;-82
2023/09/19 02:22:36;;;;;;;0.47;0.40;;;;;;;;;;5072108;28;20093;-83
2023/09/19 02:25:05;;;;;;;0.88;0.63;;;;;;;;;;5061191;28;20186;-82
2023/09/19 02:27:31;;;;;;;0.50;0.50;;;;;;;;;;5064682;28;20036;-83
2023/09/19 02:29:57;;;;;;;0.45;0.40;;;;;;;;;;5071679;28;20452;-82
2023/09/19 02:32:24;;;;;;;0.50;0.50;;;;;;;;;;5081182;28;20078;-82
2023/09/19 02:34:51;;;;;;;0.60;0.60;;;;;;;;;;5080679;28;20032;-83
2023/09/19 02:37:19;;;;;;;0.70;0.60;;;;;;;;;;5080451;28;20025;-83
2023/09/19 02:39:45;;;;;;;0.50;0.50;;;;;;;;;;5079771;28;20055;-82
2023/09/19 02:42:11;;;;;;;0.60;0.60;;;;;;;;;;5076458;28;20036;-83
2023/09/19 02:44:38;;;;;;;0.52;0.52;;;;;;;;;;5066385;28;20040;-82
2023/09/19 02:47:04;;;;;;;0.30;0.30;;;;;;;;;;5061274;28;20017;-83
2023/09/19 02:49:30;;;;;;;0.40;0.40;;;;;;;;;;5060889;28;20017;-82
2023/09/19 02:51:58;;;;;;;0.50;0.50;;;;;;;;;;5073318;28;20036;-83
2023/09/19 02:54:24;;;;;;;0.40;0.40;;;;;;;;;;5080871;28;20278;-83
2023/09/19 02:56:50;;;;;;;0.50;0.50;;;;;;;;;;5078586;28;20100;-82
2023/09/19 02:59:19;;;;;;;0.55;0.55;;;;;;;;;;5073430;28;20021;-81
2023/09/19 03:01:47;;;;;;;0.30;0.30;;;;;;;;;;5080864;28;20020;-81
2023/09/19 03:04:17;;;;;;;0.55;0.55;;;;;;;;;;5080835;28;20024;-81
2023/09/19 03:06:44;;;;;;;0.20;0.20;;;;;;;;;;5078040;28;20407;-82
2023/09/19 03:09:11;;;;;;;0.30;0.30;;;;;;;;;;5074570;28;20037;-82
2023/09/19 03:11:37;;;;;;;0.40;0.40;;;;;;;;;;5075870;28;20099;-81
2023/09/19 03:14:04;;;;;;;0.45;0.45;;;;;;;;;;5080261;28;20025;-81
2023/09/19 03:16:30;;;;;;;0.30;0.30;;;;;;;;;;5085539;28;20008;-79
2023/09/19 03:18:56;;;;;;;0.60;0.60;;;;;;;;;;5087056;28;20530;-81
2023/09/19 03:21:22;;;;;;;0.40;0.40;;;;;;;;;;5083996;28;20029;-78
2023/09/19 03:23:48;;;;;;;0.30;0.30;;;;;;;;;;5065667;28;20033;-78
2023/09/19 03:26:17;;;;;;;0.40;0.40;;;;;;;;;;5058454;28;20115;-78
2023/09/19 03:28:43;;;;;;;0.30;0.30;;;;;;;;;;5071007;28;20036;-79
2023/09/19 03:31:12;;;;;;;0.57;0.50;;;;;;;;;;5075416;28;20112;-77
2023/09/19 03:33:39;;;;;;;0.40;0.40;;;;;;;;;;5071384;28;20028;-79
2023/09/19 03:36:05;;;;;;;0.40;0.40;;;;;;;;;;5070710;28;20115;-79
2023/09/19 03:38:35;;;;;;;0.32;0.30;;;;;;;;;;5064217;28;20423;-77
2023/09/19 03:41:01;;;;;;;0.70;0.70;;;;;;;;;;5077780;28;20046;-79
2023/09/19 03:43:27;;;;;;;0.30;0.30;;;;;;;;;;5069813;28;20036;-79
2023/09/19 03:45:56;;;;;;;0.28;0.28;;;;;;;;;;5076956;28;20029;-80
2023/09/19 03:48:22;;;;;;;0.70;0.70;;;;;;;;;;5079026;28;20048;-80
2023/09/19 03:50:49;;;;;;;0.70;0.60;;;;;;;;;;5080624;28;20096;-78
2023/09/19 03:53:15;;;;;;;0.77;0.77;;;;;;;;;;5085179;28;20024;-78
2023/09/19 03:55:41;;;;;;;0.70;0.70;;;;;;;;;;5075210;28;20125;-79
2023/09/19 03:58:08;;;;;;;0.43;0.43;;;;;;;;;;5084299;28;20021;-76
2023/09/19 04:00:34;;;;;;;0.77;0.77;;;;;;;;;;5086111;28;20023;-76
2023/09/19 04:03:05;;;;;;;0.70;0.70;;;;;;;;;;5086664;28;20025;-78
2023/09/19 04:05:31;;;;;;;1.35;0.70;;;;;;;;;;5084683;28;20119;-78
2023/09/19 04:07:57;;;;;;;0.60;0.60;;;;;;;;;;5082278;28;20452;-78
2023/09/19 04:10:23;;;;;;;0.60;0.60;;;;;;;;;;5076540;28;20021;-78
2023/09/19 04:12:53;;;;;;;0.65;0.65;;;;;;;;;;5074563;28;20017;-78
2023/09/19 04:15:19;;;;;;;0.98;0.98;;;;;;;;;;5067998;28;20123;-75
2023/09/19 04:17:45;;;;;;;0.82;0.70;;;;;;;;;;5057366;28;20025;-76
2023/09/19 04:20:12;;;;;;;0.90;0.90;;;;;;;;;;5066472;28;20102;-77
2023/09/19 04:22:39;;;;;;;1.48;0.85;;;;;;;;;;5066328;28;20025;-79
2023/09/19 04:25:08;;;;;;;1.17;0.95;;;;;;;;;;5067103;28;20017;-77
2023/09/19 04:27:35;;;;;;;0.85;0.85;;;;;;;;;;5070977;28;20099;-78
2023/09/19 04:30:09;;;;;;;2.55;1.05;;;;;;;;;;5072524;28;20043;-79
2023/09/19 04:32:36;;;;;;;1.15;1.05;;;;;;;;;;5065340;28;20447;-77
2023/09/19 04:35:05;;;;;;;1.20;1.10;;;;;;;;;;5065200;28;20029;-77
2023/09/19 04:37:33;;;;;;;0.75;0.70;;;;;;;;;;5067385;28;20029;-77
2023/09/19 04:39:59;;;;;;;1.35;1.00;;;;;;;;;;5066387;28;20032;-79
2023/09/19 04:42:25;;;;;;;1.02;1.00;;;;;;;;;;5064026;28;20381;-77
2023/09/19 04:44:53;;;;;;;1.20;1.10;;;;;;;;;;5064608;28;20064;-78
2023/09/19 04:47:19;;;;;;;1.17;1.08;;;;;;;;;;5067717;28;20021;-79
2023/09/19 04:49:45;;;;;;;1.10;1.00;;;;;;;;;;5066819;28;20029;-77
2023/09/19 04:52:11;;;;;;;1.45;1.00;;;;;;;;;;5067938;28;20078;-77
2023/09/19 04:54:38;;;;;;;1.13;0.80;;;;;;;;;;5067615;28;20020;-77
2023/09/19 04:57:05;;;;;;;1.00;0.80;;;;;;;;;;5069305;28;20021;-77
2023/09/19 04:59:32;;;;;;;0.68;0.68;;;;;;;;;;5083894;28;20117;-79
2023/09/19 05:01:58;;;;;;;1.52;1.05;;;;;;;;;;5078031;28;20048;-80
2023/09/19 05:04:24;;;;;;;0.90;0.90;;;;;;;;;;5078107;28;20086;-78
2023/09/19 05:06:50;;;;;;;2.40;0.80;;;;;;;;;;5078043;28;20033;-81
2023/09/19 05:09:19;;;;;;;1.00;0.90;;;;;;;;;;5078048;28;20033;-79
2023/09/19 05:11:46;;;;;;;2.22;0.93;;;;;;;;;;5078681;28;20019;-80
2023/09/19 05:14:12;;;;;;;1.60;0.98;;;;;;;;;;5076777;28;20037;-77
2023/09/19 05:16:39;;;;;;;2.28;1.25;;;;;;;;;;5072506;28;20050;-77
2023/09/19 05:19:06;;;;;;;1.55;0.93;;;;;;;;;;5070648;28;20052;-77
2023/09/19 05:21:33;;;;;;;0.90;0.90;;;;;;;;;;5083063;28;20032;-76
2023/09/19 05:23:59;;;;;;;1.08;0.90;;;;;;;;;;5076102;28;20024;-77
2023/09/19 05:26:25;;;;;;;1.25;0.88;;;;;;;;;;5071609;28;20048;-78
2023/09/19 05:28:52;;;;;;;1.55;1.02;;;;;;;;;;5081611;28;20204;-77
2023/09/19 05:31:19;;;;;;;1.13;0.75;;;;;;;;;;5069527;28;20028;-76
2023/09/19 05:33:45;;;;;;;1.08;0.98;;;;;;;;;;5069520;28;20340;-77
2023/09/19 05:36:11;;;;;;;0.60;0.60;;;;;;;;;;5068483;28;20029;-78
2023/09/19 05:38:40;;;;;;;0.73;0.70;;;;;;;;;;5069495;28;20025;-77
2023/09/19 05:41:08;;;;;;;1.17;0.77;;;;;;;;;;5069081;28;20017;-77
2023/09/19 05:43:37;;;;;;;3.13;1.17;;;;;;;;;;5071065;28;20028;-78
2023/09/19 05:46:03;;;;;;;1.95;1.55;;;;;;;;;;5067976;28;20020;-76
2023/09/19 05:48:29;;;;;;;1.42;1.02;;;;;;;;;;5068128;28;20040;-76
2023/09/19 05:50:55;;;;;;;1.38;1.10;;;;;;;;;;5069548;28;20025;-76
2023/09/19 05:53:23;;;;;;;0.77;0.70;;;;;;;;;;5066699;28;20499;-76
2023/09/19 05:55:49;;;;;;;1.60;1.00;;;;;;;;;;5068931;28;20056;-76
2023/09/19 05:58:17;;;;;;;1.13;1.00;;;;;;;;;;5078104;28;20024;-77
2023/09/19 06:00:44;;;;;;;3.28;0.80;;;;;;;;;;5084007;28;20032;-77
2023/09/19 06:03:13;;;;;;;0.93;0.93;;;;;;;;;;5089285;28;20005;-78
2023/09/19 06:05:41;;;;;;;1.20;1.10;;;;;;;;;;5088137;28;20111;-78
2023/09/19 06:08:07;;;;;;;1.52;0.73;;;;;;;;;;5089627;28;20024;-78
2023/09/19 06:10:37;;;;;;;1.25;1.00;;;;;;;;;;5088908;28;20029;-77
2023/09/19 06:13:09;;;;;;;1.42;0.80;;;;;;;;;;5088580;28;20027;-77
2023/09/19 06:15:35;;;;;;;1.77;0.80;;;;;;;;;;5088307;28;20024;-76
2023/09/19 06:18:04;;;;;;;1.38;0.70;;;;;;;;;;5086667;28;20028;-76
2023/09/19 06:20:31;;;;;;;0.88;0.77;;;;;;;;;;5089166;28;20025;-76
2023/09/19 06:22:57;;;;;;;1.10;0.80;;;;;;;;;;5088509;28;20025;-77
2023/09/19 06:25:23;;;;;;;1.35;0.90;;;;;;;;;;5088112;28;20031;-76
2023/09/19 06:27:54;;;;;;;0.90;0.90;;;;;;;;;;5082245;28;20109;-77
2023/09/19 06:30:21;;;;;;;1.23;1.00;;;;;;;;;;5080562;28;20059;-77
2023/09/19 06:32:48;;;;;;;1.27;0.93;;;;;;;;;;5087361;28;20028;-78
2023/09/19 06:35:15;;;;;;;2.92;1.00;;;;;;;;;;5089308;28;20025;-77
2023/09/19 06:37:42;;;;;;;1.13;0.90;;;;;;;;;;5089545;28;20020;-78
2023/09/19 06:40:15;;;;;;;0.88;0.88;;;;;;;;;;5087645;28;20088;-77
2023/09/19 06:42:45;;;;;;;1.02;0.85;;;;;;;;;;5085476;28;20028;-76
2023/09/19 06:45:13;;;;;;;1.50;1.00;;;;;;;;;;5087416;28;20044;-77
2023/09/19 06:47:39;;;;;;;2.30;1.00;;;;;;;;;;5086590;28;20021;-77
2023/09/19 06:50:09;;;;;;;1.88;1.02;;;;;;;;;;5089261;28;20092;-77
2023/09/19 06:52:35;;;;;;;2.65;0.90;;;;;;;;;;5088092;28;20020;-78
2023/09/19 06:55:03;;;;;;;1.48;0.80;;;;;;;;;;5089150;28;20029;-77
2023/09/19 06:57:30;;;;;;;0.88;0.73;;;;;;;;;;5090197;28;20020;-77
2023/09/19 06:59:56;;;;;;;1.02;0.93;;;;;;;;;;5088604;28;20046;-76
2023/09/19 07:02:23;;;;;;;1.92;0.93;;;;;;;;;;5088564;28;20035;-77
2023/09/19 07:04:49;;;;;;;0.77;0.77;;;;;;;;;;5087777;28;20055;-78
2023/09/19 07:07:16;;;;;;;0.95;0.80;;;;;;;;;;5085921;28;20452;-77
2023/09/19 07:09:42;;;;;;;3.45;1.23;;;;;;;;;;5088832;28;20439;-76
2023/09/19 07:12:08;;;;;;;1.50;1.02;;;;;;;;;;5085426;28;20020;-78
2023/09/19 07:14:34;;;;;;;2.28;1.00;;;;;;;;;;5086569;28;20028;-77
2023/09/19 07:17:01;;;;;;;1.10;1.00;;;;;;;;;;5087061;28;20032;-77
2023/09/19 07:19:31;;;;;;;1.05;0.93;;;;;;;;;;5085918;28;20040;-76
2023/09/19 07:21:59;;;;;;;2.67;1.20;;;;;;;;;;5086352;28;20028;-76
2023/09/19 07:24:28;;;;;;;1.55;1.00;;;;;;;;;;5087666;28;20032;-77
2023/09/19 07:26:55;;;;;;;1.10;1.00;;;;;;;;;;5088177;28;20024;-77
2023/09/19 07:29:21;;;;;;;1.10;0.90;;;;;;;;;;5083554;28;20021;-81
2023/09/19 07:31:47;;;;;;;4.10;1.75;;;;;;;;;;5079630;28;20020;-77
2023/09/19 07:34:14;;;;;;;1.15;0.95;;;;;;;;;;5087261;28;20048;-78
2023/09/19 07:36:41;;;;;;;1.63;1.00;;;;;;;;;;5086168;28;20020;-78
2023/09/19 07:39:07;;;;;;;2.35;0.90;;;;;;;;;;5088021;28;20094;-80
2023/09/19 07:41:34;;;;;;;3.17;1.35;;;;;;;;;;5088190;28;20028;-78
2023/09/19 07:44:00;;;;;;;1.17;1.10;;;;;;;;;;5083746;28;20033;-79
2023/09/19 07:46:26;;;;;;;1.58;0.82;;;;;;;;;;5080925;28;20364;-78
2023/09/19 07:48:52;;;;;;;1.50;0.73;;;;;;;;;;5079015;28;20505;-79
2023/09/19 07:51:19;;;;;;;1.58;0.98;;;;;;;;;;5080725;28;20090;-78
2023/09/19 07:53:45;;;;;;;4.68;1.55;;;;;;;;;;5082248;28;20016;-80
2023/09/19 07:56:14;;;;;;;1.08;0.90;;;;;;;;;;5083671;28;20025;-80
2023/09/19 07:58:43;;;;;;;3.10;0.90;;;;;;;;;;5067232;28;20025;-79
2023/09/19 08:01:12;;;;;;;1.67;0.93;;;;;;;;;;5060995;28;20017;-79
2023/09/19 08:03:40;;;;;;;2.15;0.90;;;;;;;;;;5059786;28;20032;-78
2023/09/19 08:06:07;;;;;;;1.33;0.90;;;;;;;;;;5060077;28;20021;-79
2023/09/19 08:08:39;;;;;;;0.68;0.60;;;;;;;;;;5063747;28;20064;-77
2023/09/19 08:11:15;;;;;;;2.13;1.08;;;;;;;;;;5070396;28;20047;-79
2023/09/19 08:13:43;;;;;;;3.15;1.05;;;;;;;;;;5073032;28;20025;-78
2023/09/19 08:16:13;;;;;;;1.95;1.13;;;;;;;;;;5075693;28;20089;-80
2023/09/19 08:18:41;;;;;;;1.50;0.90;;;;;;;;;;5073776;28;20049;-80
2023/09/19 08:21:10;;;;;;;5.63;1.08;;;;;;;;;;5080388;28;20285;-79
2023/09/19 08:23:38;;;;;;;0.88;0.82;;;;;;;;;;5095945;28;20078;-80
2023/09/19 08:26:07;;;;;;;1.55;0.80;;;;;;;;;;5083348;28;20016;-79
2023/09/19 08:28:33;;;;;;;1.85;0.65;;;;;;;;;;5080323;28;20044;-78
2023/09/19 08:31:06;;;;;;;1.67;0.90;;;;;;;;;;5080659;28;20025;-79
2023/09/19 08:33:35;;;;;;;1.52;1.38;;;;;;;;;;5078277;28;20074;-79
2023/09/19 08:36:04;;;;;;;1.55;1.05;;;;;;;;;;5085163;28;20021;-77
2023/09/19 08:38:32;;;;;;;1.17;0.90;;;;;;;;;;5069549;28;20028;-78
2023/09/19 08:41:02;;;;;;;1.35;0.95;;;;;;;;;;5065008;28;20021;-79
2023/09/19 08:43:28;;;;;;;3.67;0.73;;;;;;;;;;5066822;28;20025;-79
2023/09/19 08:46:09;;;;;;;1.40;1.30;;;;;;;;;;5064475;28;20313;-78
2023/09/19 08:48:39;;;;;;;0.82;0.65;;;;;;;;;;5064011;28;20021;-77
2023/09/19 08:51:44;;;;;;;3.05;1.10;;;;;;;;;;5066002;28;20032;-78
2023/09/19 08:54:13;;;;;;;1.05;0.82;;;;;;;;;;5003823;28;20026;-79
2023/09/19 08:56:39;;;;;;;0.82;0.65;;;;;;;;;;5058484;28;20162;-80
2023/09/19 08:59:11;;;;;;;1.88;0.90;;;;;;;;;;5077703;28;20040;-82
2023/09/19 09:01:46;;;;;;;0.70;0.70;;;;;;;;;;5076057;28;20025;-79
2023/09/19 09:04:20;;;;;;;0.93;0.93;;;;;;;;;;5068966;28;20036;-77
2023/09/19 09:06:50;;;;;;;2.10;1.10;;;;;;;;;;5071402;28;20029;-79
2023/09/19 09:09:17;;;;;;;0.85;0.85;;;;;;;;;;5077509;28;20048;-80
2023/09/19 09:11:43;;;;;;;1.63;0.95;;;;;;;;;;5088861;28;20005;-80
2023/09/19 09:14:09;;;;;;;3.88;0.98;;;;;;;;;;5096699;28;20017;-79
2023/09/19 09:16:36;;;;;;;1.27;0.88;;;;;;;;;;5095964;28;20035;-78
2023/09/19 09:19:02;;;;;;;2.05;0.90;;;;;;;;;;5098000;28;20020;-79
2023/09/19 09:21:28;;;;;;;2.17;1.02;;;;;;;;;;5091252;28;20040;-79
2023/09/19 09:23:55;;;;;;;1.35;1.08;;;;;;;;;;5083106;28;20032;-81
2023/09/19 09:26:39;;;;;;;1.10;1.00;;;;;;;;;;5083897;28;20020;-80
2023/09/19 09:29:05;;;;;;;1.25;0.90;;;;;;;;;;5070086;28;20025;-79
2023/09/19 09:31:31;;;;;;;1.40;1.00;;;;;;;;;;5062314;28;20032;-78
2023/09/19 09:33:58;;;;;;;0.98;0.98;;;;;;;;;;5059659;28;20407;-78
2023/09/19 09:36:40;;;;;;;0.80;0.80;;;;;;;;;;5065175;28;20107;-81
2023/09/19 09:39:19;;;;;;;;;;;;;;;;;;5066918;28;20471;-81
2023/09/19 09:41:45;;;;;;;1.48;1.00;;;;;;;;;;5063724;28;19991;-78
2023/09/19 09:44:15;;;;;;;0.70;0.70;;;;;;;;;;5065961;28;20458;-78
2023/09/19 09:49:32;;;;;;;1.55;1.10;;;;;;;;;;5062132;28;20471;-79
2023/09/19 09:52:05;;;;;;;0.80;0.70;;;;;;;;;;5061533;28;20056;-78
2023/09/19 09:54:38;;;;;;;1.25;0.88;;;;;;;;;;5062482;28;20050;-80
2023/09/19 09:57:16;;;;;;;1.33;0.95;;;;;;;;;;5064628;28;20096;-80
2023/09/19 09:59:50;;;;;;;2.08;1.20;;;;;;;;;;5071321;28;20388;-79
2023/09/19 10:02:24;;;;;;;1.08;1.08;;;;;;;;;;5082245;28;20422;-80
2023/09/19 10:07:40;;;;;;;1.00;0.90;;;;;;;;;;5085749;28;20040;-77
2023/09/19 10:10:15;;;;;;;0.68;0.68;;;;;;;;;;5082676;28;20047;-79
2023/09/19 10:12:47;;;;;;;1.10;0.95;;;;;;;;;;5087293;28;20029;-79
2023/09/19 10:15:15;;;;;;;2.50;1.20;;;;;;;;;;5084950;28;20028;-80
2023/09/19 10:17:43;;;;;;;2.08;1.33;;;;;;;;;;5082880;28;20044;-78
2023/09/19 10:20:19;;;;;;;2.63;1.27;;;;;;;;;;5082094;28;20497;-79
2023/09/19 10:22:56;;;;;;;2.00;1.00;;;;;;;;;;5081795;28;20029;-81
2023/09/19 10:25:25;;;;;;;1.38;1.00;;;;;;;;;;5081489;28;20020;-80
2023/09/19 10:27:53;;;;;;;0.82;0.80;;;;;;;;;;5072024;28;20507;-78
2023/09/19 10:30:20;;;;;;;2.28;1.25;;;;;;;;;;5060495;28;20021;-79
2023/09/19 10:32:47;;;;;;;3.45;1.33;;;;;;;;;;5061079;28;20022;-79
2023/09/19 10:35:15;;;;;;;1.15;1.02;;;;;;;;;;5078236;28;20068;-79
2023/09/19 10:37:41;;;;;;;1.30;1.08;;;;;;;;;;5083023;28;20506;-79
2023/09/19 10:40:08;;;;;;;1.20;1.10;;;;;;;;;;5082848;28;20035;-80
2023/09/19 10:42:38;;;;;;;1.33;1.23;;;;;;;;;;5081370;28;20112;-79
2023/09/19 10:45:07;;;;;;;1.33;1.05;;;;;;;;;;5083531;28;20562;-80
2023/09/19 10:47:37;;;;;;;1.40;1.30;;;;;;;;;;5082458;28;20028;-78
2023/09/19 10:50:05;;;;;;;2.25;1.17;;;;;;;;;;5077646;28;20476;-78
2023/09/19 10:52:34;;;;;;;2.03;1.08;;;;;;;;;;5063130;28;20025;-77
2023/09/19 10:55:02;;;;;;;2.55;1.20;;;;;;;;;;5062614;28;20267;-80
2023/09/19 10:57:28;;;;;;;1.33;1.10;;;;;;;;;;5068791;28;20066;-79
2023/09/19 11:00:23;;;;;;;2.15;1.10;;;;;;;;;;5073257;28;20369;-78
2023/09/19 11:03:30;;;;;;;1.88;1.27;;;;;;;;;;5083537;28;20027;-77
2023/09/19 11:06:09;;;;;;;1.83;1.38;;;;;;;;;;5062129;28;20036;-78
2023/09/19 11:08:57;;;;;;;2.10;1.20;;;;;;;;;;5061986;28;20112;-79
2023/09/19 11:11:39;;;;;;;4.93;1.10;;;;;;;;;;5060338;28;20078;-78
2023/09/19 11:14:15;;;;;;;1.25;1.02;;;;;;;;;;5059578;28;20061;-81
2023/09/19 11:17:01;;;;;;;1.98;1.85;;;;;;;;;;5062386;28;20021;-78
2023/09/19 11:19:48;;;;;;;2.13;1.30;;;;;;;;;;5069723;28;20036;-81
2023/09/19 11:22:14;;;;;;;1.13;1.00;;;;;;;;;;5071510;28;20434;-81
2023/09/19 11:24:41;;;;;;;1.55;1.23;;;;;;;;;;5071721;28;20089;-79
2023/09/19 11:27:13;;;;;;;1.80;1.40;;;;;;;;;;5078104;28;20028;-77
2023/09/19 11:29:39;;;;;;;1.75;1.20;;;;;;;;;;5078142;28;20019;-80
2023/09/19 11:32:06;;;;;;;2.22;1.10;;;;;;;;;;5092862;28;20021;-78
2023/09/19 11:34:38;;;;;;;1.98;1.08;;;;;;;;;;5088757;28;20058;-79
2023/09/19 11:37:11;;;;;;;1.05;0.82;;;;;;;;;;5078620;28;20044;-80
2023/09/19 11:39:38;;;;;;;1.02;1.00;;;;;;;;;;5076465;28;20491;-79
2023/09/19 11:42:23;;;;;;;1.20;0.90;;;;;;;;;;5083942;28;20492;-77
2023/09/19 11:44:52;;;;;;;1.08;0.75;;;;;;;;;;5083911;28;20056;-78
2023/09/19 11:47:19;;;;;;;1.00;0.90;;;;;;;;;;5082526;28;20044;-78
2023/09/19 11:49:45;;;;;;;1.42;1.10;;;;;;;;;;5083637;28;20017;-76
2023/09/19 11:52:13;;;;;;;1.10;1.00;;;;;;;;;;5083201;28;20035;-78
2023/09/19 11:54:41;;;;;;;0.88;0.88;;;;;;;;;;5083380;28;20495;-77
2023/09/19 11:57:08;;;;;;;0.95;0.90;;;;;;;;;;5069476;28;20021;-77
2023/09/19 11:59:39;;;;;;;2.78;1.20;;;;;;;;;;5075660;28;20059;-78
2023/09/19 12:02:06;;;;;;;1.30;0.75;;;;;;;;;;5082495;28;20043;-77
2023/09/19 12:04:39;;;;;;;1.27;0.73;;;;;;;;;;5082600;28;20113;-77
2023/09/19 12:07:05;;;;;;;1.08;1.02;;;;;;;;;;5084033;28;20023;-77
2023/09/19 12:09:32;;;;;;;4.63;0.80;;;;;;;;;;5083202;28;20032;-77
2023/09/19 12:11:58;;;;;;;1.15;1.00;;;;;;;;;;5084526;28;20017;-79
2023/09/19 12:14:25;;;;;;;0.80;0.63;;;;;;;;;;5083223;28;20039;-78
2023/09/19 12:16:55;;;;;;;1.10;0.90;;;;;;;;;;5084501;28;20087;-77
2023/09/19 12:19:22;;;;;;;1.75;1.05;;;;;;;;;;5080193;28;20103;-79
2023/09/19 12:22:04;;;;;;;0.93;0.90;;;;;;;;;;5082130;28;20052;-80
2023/09/19 12:24:30;;;;;;;0.90;0.90;;;;;;;;;;5080668;28;20025;-78
2023/09/19 12:27:06;;;;;;;1.38;0.88;;;;;;;;;;5078634;28;20033;-80
2023/09/19 12:29:42;;;;;;;1.05;0.90;;;;;;;;;;5071496;28;20017;-80
2023/09/19 12:32:08;;;;;;;1.10;1.00;;;;;;;;;;5071005;28;20100;-79
2023/09/19 12:34:35;;;;;;;1.17;0.90;;;;;;;;;;5056197;28;20402;-78
2023/09/19 12:37:11;;;;;;;1.85;1.20;;;;;;;;;;5060904;28;20043;-80
2023/09/19 12:39:41;;;;;;;0.90;0.90;;;;;;;;;;5070264;28;20484;-80
2023/09/19 12:42:13;;;;;;;0.82;0.82;;;;;;;;;;5067605;28;20063;-80
2023/09/19 12:44:44;;;;;;;0.73;0.73;;;;;;;;;;5064011;28;20025;-81
2023/09/19 12:47:11;;;;;;;1.33;1.20;;;;;;;;;;5072787;28;20048;-78
2023/09/19 12:49:38;;;;;;;0.68;0.68;;;;;;;;;;5068530;28;20041;-78
2023/09/19 12:52:05;;;;;;;0.93;0.80;;;;;;;;;;5066113;28;20035;-80
2023/09/19 12:54:41;;;;;;;1.00;0.75;;;;;;;;;;5066869;28;20029;-78
2023/09/19 12:57:07;;;;;;;1.42;0.80;;;;;;;;;;5072861;28;20036;-79
2023/09/19 12:59:36;;;;;;;0.75;0.75;;;;;;;;;;5053451;28;20094;-80
2023/09/19 13:02:13;;;;;;;1.50;1.40;;;;;;;;;;5088311;28;20032;-79
2023/09/19 13:04:41;;;;;;;1.35;0.90;;;;;;;;;;5089226;28;20364;-81
2023/09/19 13:07:09;;;;;;;1.13;1.05;;;;;;;;;;5082858;28;20025;-80
2023/09/19 13:09:35;;;;;;;1.33;1.25;;;;;;;;;;5081739;28;20505;-81
2023/09/19 13:12:02;;;;;;;1.30;1.10;;;;;;;;;;5082324;28;20025;-80
2023/09/19 13:14:37;;;;;;;1.10;1.02;;;;;;;;;;5082196;28;20035;-80
2023/09/19 13:17:16;;;;;;;2.92;1.48;;;;;;;;;;5079731;28;20028;-77
2023/09/19 13:19:49;;;;;;;6.90;1.27;;;;;;;;;;5081718;28;20024;-79
2023/09/19 13:22:34;;;;;;;2.95;1.20;;;;;;;;;;5084354;28;20048;-80
2023/09/19 13:25:01;;;;;;;0.73;0.70;;;;;;;;;;5085131;28;20020;-80
2023/09/19 13:27:28;;;;;;;2.30;0.80;;;;;;;;;;5082799;28;20019;-79
2023/09/19 13:29:54;;;;;;;0.70;0.70;;;;;;;;;;5076356;28;20025;-78
2023/09/19 13:32:21;;;;;;;1.08;0.70;;;;;;;;;;5082153;28;20111;-81
2023/09/19 13:34:47;;;;;;;0.88;0.88;;;;;;;;;;5081586;28;20039;-78
2023/09/19 13:37:14;;;;;;;1.42;1.33;;;;;;;;;;5063466;28;20020;-79
2023/09/19 13:39:47;;;;;;;2.40;1.10;;;;;;;;;;5061224;28;20033;-80
2023/09/19 13:42:13;;;;;;;3.65;1.00;;;;;;;;;;5059173;28;20154;-79
2023/09/19 13:44:41;;;;;;;1.35;0.90;;;;;;;;;;5063295;28;20283;-79
2023/09/19 13:47:13;;;;;;;1.52;0.93;;;;;;;;;;5063319;28;20029;-80
2023/09/19 13:49:39;;;;;;;1.52;1.17;;;;;;;;;;5061621;28;20021;-79
2023/09/19 13:52:05;;;;;;;1.00;0.90;;;;;;;;;;5061359;28;20074;-79
2023/09/19 13:54:31;;;;;;;1.27;0.70;;;;;;;;;;5062662;28;20278;-80
2023/09/19 13:56:57;;;;;;;1.02;0.82;;;;;;;;;;5066871;28;20027;-80
2023/09/19 13:59:24;;;;;;;0.90;0.90;;;;;;;;;;5065040;28;21047;-83
2023/09/19 14:01:50;;;;;;;0.70;0.70;;;;;;;;;;5080006;28;20034;-79
2023/09/19 14:04:16;;;;;;;0.93;0.80;;;;;;;;;;5081715;28;20059;-77
2023/09/19 14:06:43;;;;;;;2.67;0.88;;;;;;;;;;5083434;28;20032;-81
2023/09/19 14:09:10;;;;;;;0.80;0.80;;;;;;;;;;5082010;28;20024;-78
2023/09/19 14:11:36;;;;;;;1.65;1.00;;;;;;;;;;5085161;28;20021;-80
2023/09/19 14:14:04;;;;;;;0.60;0.60;;;;;;;;;;5083896;28;20030;-79
2023/09/19 14:16:31;;;;;;;1.05;0.90;;;;;;;;;;5082438;28;20024;-80
2023/09/19 14:18:58;;;;;;;0.93;0.90;;;;;;;;;;5081263;28;20475;-80
2023/09/19 14:21:24;;;;;;;1.05;0.80;;;;;;;;;;5082425;28;20024;-77
2023/09/19 14:23:50;;;;;;;0.60;0.60;;;;;;;;;;5080515;28;20035;-80
2023/09/19 14:26:18;;;;;;;1.58;0.80;;;;;;;;;;5084275;28;20024;-80
2023/09/19 14:28:44;;;;;;;1.02;0.70;;;;;;;;;;5071103;28;20036;-80
2023/09/19 14:31:11;;;;;;;2.25;0.80;;;;;;;;;;5074146;28;20017;-79
2023/09/19 14:33:38;;;;;;;0.80;0.80;;;;;;;;;;5071419;28;20033;-80
2023/09/19 14:36:13;;;;;;;1.60;1.02;;;;;;;;;;5074648;28;20044;-79
2023/09/19 14:38:39;;;;;;;3.17;0.85;;;;;;;;;;5071622;28;20104;-80
2023/09/19 14:41:06;;;;;;;0.70;0.70;;;;;;;;;;5074535;28;20040;-80
2023/09/19 14:43:32;;;;;;;1.00;0.90;;;;;;;;;;5081427;28;20032;-81
2023/09/19 14:46:08;;;;;;;0.82;0.80;;;;;;;;;;5086448;28;20032;-81
2023/09/19 14:48:34;;;;;;;0.85;0.82;;;;;;;;;;5081900;28;20024;-79
2023/09/19 14:51:04;;;;;;;2.40;1.30;;;;;;;;;;5079886;28;20052;-79
2023/09/19 14:53:30;;;;;;;0.70;0.70;;;;;;;;;;5078619;28;20031;-78
2023/09/19 14:55:56;;;;;;;0.73;0.73;;;;;;;;;;5080764;28;20487;-81
2023/09/19 14:58:22;;;;;;;1.50;1.10;;;;;;;;;;5081483;28;20025;-79